This is the latest recevied weather packets stored in our database for station/object K9ZOG. If no packets are shown the sender has not sent any weather packets the latest 1 day(s).
| Time | Temp. | Humidity | Pressure | Rain* | Wind** | Luminosity | Snow |
|---|---|---|---|---|---|---|---|
| 1778003058 | 11.67° C | 43% | 1008.9 hPa | 0 mm | 0.89 m/s, 270° | 420 W/m² | - |
| 1778002755 | 11.67° C | 42% | 1008.6 hPa | 0 mm | 0.89 m/s, 348° | 353 W/m² | - |
| 1778002457 | 11.67° C | 45% | 1008.5 hPa | 0 mm | 0.89 m/s, 6° | 449 W/m² | - |
| 1778002156 | 11.67° C | 44% | 1008.5 hPa | 0 mm | 1.79 m/s, 203° | 662 W/m² | - |
| 1778001854 | 11.67° C | 44% | 1008.5 hPa | 0 mm | 1.79 m/s, 208° | 699 W/m² | - |
| 1778001553 | 11.67° C | 43% | 1008.4 hPa | 0 mm | 1.34 m/s, 161° | 438 W/m² | - |
| 1778001254 | 11.67° C | 42% | 1008.4 hPa | 0 mm | 1.34 m/s, 219° | 327 W/m² | - |
| 1778000957 | 11.11° C | 41% | 1008.3 hPa | 0 mm | 0.89 m/s, 298° | 297 W/m² | - |
| 1778000653 | 11.11° C | 42% | 1008.3 hPa | 0 mm | 1.34 m/s, 313° | 270 W/m² | - |
| 1778000354 | 11.11° C | 41% | 1008.1 hPa | 0 mm | 0.89 m/s, 278° | 284 W/m² | - |
| 1778000055 | 11.11° C | 40% | 1008 hPa | 0 mm | 1.79 m/s, 328° | 271 W/m² | - |
| 1777999753 | 11.11° C | 42% | 1008 hPa | 0 mm | 0.89 m/s, 7° | 249 W/m² | - |
| 1777999456 | 11.11° C | 42% | 1008.1 hPa | 0 mm | 0.89 m/s, 197° | 240 W/m² | - |
| 1777999154 | 11.11° C | 44% | 1008 hPa | 0 mm | 0.89 m/s, 181° | 269 W/m² | - |
| 1777998855 | 10.56° C | 43% | 1008.1 hPa | 0 mm | 1.79 m/s, 333° | 345 W/m² | - |
| 1777998554 | 10.56° C | 43% | 1008.2 hPa | 0 mm | 1.79 m/s, 321° | 326 W/m² | - |
| 1777998252 | 10.56° C | 41% | 1008.1 hPa | 0 mm | 0.89 m/s, 257° | 285 W/m² | - |
| 1777997956 | 10.56° C | 41% | 1008 hPa | 0 mm | 0.89 m/s, 208° | 284 W/m² | - |
| 1777997652 | 10.56° C | 41% | 1008.3 hPa | 0 mm | 0.89 m/s, 5° | 368 W/m² | - |
| 1777997354 | 11.11° C | 40% | 1008.2 hPa | 0 mm | 2.24 m/s, 341° | 293 W/m² | - |
| 1777997055 | 11.11° C | 41% | 1008.1 hPa | 0 mm | 0.89 m/s, 282° | 606 W/m² | - |
| 1777996755 | 11.11° C | 38% | 1008.2 hPa | 0 mm | 1.34 m/s, 317° | 343 W/m² | - |
| 1777996453 | 11.11° C | 38% | 1008.2 hPa | 0 mm | 1.34 m/s, 254° | 566 W/m² | - |
| 1777996153 | 11.11° C | 41% | 1008.2 hPa | 0 mm | 0.89 m/s, 236° | 435 W/m² | - |
| 1777995856 | 11.11° C | 40% | 1008.2 hPa | 0 mm | 1.79 m/s, 295° | 509 W/m² | - |
* Rain latest hour (hover to see other rain measurements)
** Current wind speed in m/s (hover to see current wind gust speed)